Time;durP1;ratioP1;P1;durP2;ratioP2;P2;SDS_P1;SDS_P2;PMS_P1;PMS_P2;Temp;Humidity;BMP_temperature;BMP_pressure;BME280_temperature;BME280_humidity;BME280_pressure;Samples;Min_cycle;Max_cycle;Signal;HPM_P1;HPM_P2
2024/02/28 00:01:25;;;;;;;1.42;0.98;;;6.50;99.90;;;;;;4250116;27;20043;-60
2024/02/28 00:03:27;;;;;;;2.58;1.10;;;6.50;99.90;;;;;;4250600;27;20520;-60
2024/02/28 00:05:29;;;;;;;5.55;0.50;;;6.50;99.90;;;;;;4251262;27;20528;-60
2024/02/28 00:07:31;;;;;;;2.38;0.63;;;6.60;99.90;;;;;;4250641;27;20066;-60
2024/02/28 00:09:33;;;;;;;3.53;1.13;;;6.50;99.90;;;;;;4250483;27;20497;-62
2024/02/28 00:11:35;;;;;;;1.15;0.50;;;6.40;99.90;;;;;;4249916;27;20038;-60
2024/02/28 00:13:37;;;;;;;1.30;0.52;;;6.50;99.90;;;;;;4251068;27;20050;-62
2024/02/28 00:15:41;;;;;;;2.60;0.90;;;6.60;99.90;;;;;;4252200;27;20047;-60
2024/02/28 00:17:44;;;;;;;2.15;0.50;;;6.60;99.90;;;;;;4250329;27;20129;-60
2024/02/28 00:19:47;;;;;;;0.63;0.63;;;6.60;99.90;;;;;;4250251;27;20054;-60
2024/02/28 00:21:49;;;;;;;3.40;1.67;;;6.60;99.90;;;;;;4249715;27;20101;-60
2024/02/28 00:23:51;;;;;;;1.20;0.60;;;6.60;99.90;;;;;;4249370;27;20086;-60
2024/02/28 00:25:53;;;;;;;0.50;0.43;;;6.60;99.90;;;;;;4249956;27;20484;-60
2024/02/28 00:27:56;;;;;;;0.80;0.40;;;6.70;99.90;;;;;;4250535;27;20118;-60
2024/02/28 00:29:59;;;;;;;1.17;0.60;;;6.70;99.90;;;;;;4251860;27;20078;-61
2024/02/28 00:32:02;;;;;;;1.45;0.75;;;6.70;99.90;;;;;;4250687;27;20047;-61
2024/02/28 00:34:08;;;;;;;1.70;0.77;;;6.70;99.90;;;;;;4249840;27;20126;-60
2024/02/28 00:36:10;;;;;;;1.42;0.82;;;6.60;99.90;;;;;;4249652;27;20074;-60
2024/02/28 00:38:12;;;;;;;0.40;0.40;;;6.70;99.90;;;;;;4252463;27;20062;-60
2024/02/28 00:40:14;;;;;;;1.33;0.82;;;6.60;99.90;;;;;;4266596;27;20046;-62
2024/02/28 00:42:17;;;;;;;1.13;0.80;;;6.50;99.90;;;;;;4247758;27;20560;-60
2024/02/28 00:44:19;;;;;;;2.42;1.45;;;6.60;99.90;;;;;;4266597;27;20039;-59
2024/02/28 00:46:21;;;;;;;2.10;0.70;;;6.60;99.90;;;;;;4266217;27;20455;-59
2024/02/28 00:48:24;;;;;;;1.70;0.70;;;6.50;99.90;;;;;;4248037;27;20043;-59
2024/02/28 00:50:28;;;;;;;3.40;1.48;;;6.50;99.90;;;;;;4266541;27;20400;-59
2024/02/28 00:52:32;;;;;;;1.55;1.17;;;6.50;99.90;;;;;;4266143;27;20129;-59
2024/02/28 00:54:34;;;;;;;1.58;0.50;;;6.50;99.90;;;;;;4266237;27;20099;-60
2024/02/28 00:56:36;;;;;;;1.80;1.02;;;6.50;99.90;;;;;;4266057;27;20066;-59
2024/02/28 00:58:38;;;;;;;0.88;0.82;;;6.50;99.90;;;;;;4266173;27;20050;-59
2024/02/28 01:00:40;;;;;;;1.08;0.63;;;6.60;99.90;;;;;;4230141;27;20066;-65
2024/02/28 01:02:42;;;;;;;1.30;0.75;;;6.60;99.90;;;;;;4266161;27;20046;-59
2024/02/28 01:04:46;;;;;;;1.38;0.70;;;6.60;99.90;;;;;;4266247;27;20114;-59
2024/02/28 01:06:48;;;;;;;1.88;0.52;;;6.60;99.90;;;;;;4265908;27;20126;-59
2024/02/28 01:08:53;;;;;;;4.57;1.40;;;6.50;99.90;;;;;;4266173;27;20099;-61
2024/02/28 01:10:55;;;;;;;1.10;0.75;;;6.50;99.90;;;;;;4265911;27;20047;-60
2024/02/28 01:12:57;;;;;;;1.33;0.68;;;6.40;99.90;;;;;;4266019;27;20046;-59
2024/02/28 01:14:59;;;;;;;0.43;0.43;;;6.50;99.90;;;;;;4265397;27;20043;-60
2024/02/28 01:17:01;;;;;;;4.97;1.08;;;6.50;99.90;;;;;;4265918;27;20046;-63
2024/02/28 01:19:03;;;;;;;0.60;0.60;;;6.50;99.90;;;;;;4266572;27;20077;-60
2024/02/28 01:21:07;;;;;;;2.35;1.55;;;6.60;99.90;;;;;;4266693;27;20049;-60
2024/02/28 01:23:10;;;;;;;0.75;0.70;;;6.60;99.90;;;;;;4248342;27;20070;-59
2024/02/28 01:25:12;;;;;;;0.40;0.40;;;6.60;99.90;;;;;;4266793;27;20058;-64
2024/02/28 01:27:14;;;;;;;0.98;0.63;;;6.70;99.90;;;;;;4247950;27;20490;-60
2024/02/28 01:29:16;;;;;;;3.30;0.90;;;6.70;99.90;;;;;;4266113;27;20051;-68
2024/02/28 01:31:18;;;;;;;1.30;0.85;;;6.70;99.90;;;;;;4266195;27;20555;-59
2024/02/28 01:33:20;;;;;;;3.83;1.38;;;6.70;99.90;;;;;;4265297;27;20046;-59
2024/02/28 01:35:23;;;;;;;1.40;0.80;;;6.60;99.90;;;;;;4264734;27;20042;-61
2024/02/28 01:37:26;;;;;;;0.45;0.40;;;6.50;99.90;;;;;;4265925;27;20045;-59
2024/02/28 01:39:28;;;;;;;1.73;0.80;;;6.40;99.90;;;;;;4265409;27;20059;-59
2024/02/28 01:41:30;;;;;;;2.13;0.73;;;6.50;99.90;;;;;;4265383;27;20487;-60
2024/02/28 01:43:32;;;;;;;1.10;0.90;;;6.50;99.90;;;;;;4246879;27;20125;-59
2024/02/28 01:45:35;;;;;;;1.45;0.98;;;6.40;99.90;;;;;;4247457;27;20055;-62
2024/02/28 01:47:39;;;;;;;1.95;0.73;;;6.30;99.90;;;;;;4266362;27;20047;-59
2024/02/28 01:49:43;;;;;;;0.50;0.47;;;6.40;99.90;;;;;;4265683;27;20043;-59
2024/02/28 01:51:46;;;;;;;;;;;6.30;99.90;;;;;;4267333;27;20047;-60
2024/02/28 01:53:51;;;;;;;0.73;0.50;;;6.30;99.90;;;;;;4267492;27;19923;-59
2024/02/28 01:55:54;;;;;;;1.65;0.63;;;6.40;99.90;;;;;;4265822;27;20491;-59
2024/02/28 01:57:56;;;;;;;1.23;0.90;;;6.30;99.90;;;;;;4246560;27;20428;-59
2024/02/28 01:59:59;;;;;;;2.15;0.90;;;6.30;99.90;;;;;;4265652;27;20170;-64
2024/02/28 02:02:01;;;;;;;1.27;0.60;;;6.30;99.90;;;;;;4265256;27;20384;-59
2024/02/28 02:04:04;;;;;;;6.65;1.75;;;6.20;99.90;;;;;;4266188;27;20091;-70
2024/02/28 02:06:06;;;;;;;2.13;0.60;;;6.20;99.90;;;;;;4267812;27;20047;-63
2024/02/28 02:08:09;;;;;;;2.65;0.70;;;6.20;99.90;;;;;;4266766;27;20054;-60
2024/02/28 02:10:13;;;;;;;4.60;1.85;;;6.40;99.90;;;;;;4266590;27;20397;-60
2024/02/28 02:12:16;;;;;;;1.85;1.05;;;6.40;99.90;;;;;;4246383;27;20077;-60
2024/02/28 02:14:18;;;;;;;0.75;0.60;;;6.40;99.90;;;;;;4265310;27;20125;-61
2024/02/28 02:16:26;;;;;;;1.45;0.85;;;6.30;99.90;;;;;;4265017;27;20049;-60
2024/02/28 02:18:28;;;;;;;3.63;1.20;;;6.30;99.90;;;;;;4265013;27;20046;-59
2024/02/28 02:20:35;;;;;;;0.88;0.77;;;6.30;99.90;;;;;;4264960;27;20552;-59
2024/02/28 02:22:39;;;;;;;1.73;1.27;;;6.30;99.90;;;;;;4264994;27;20410;-59
2024/02/28 02:24:41;;;;;;;0.65;0.45;;;6.30;99.90;;;;;;4264987;27;20041;-59
2024/02/28 02:26:46;;;;;;;1.63;0.82;;;6.30;99.90;;;;;;4264590;27;20043;-60
2024/02/28 02:28:48;;;;;;;2.08;1.00;;;6.30;99.90;;;;;;4265102;27;20065;-59
2024/02/28 02:30:50;;;;;;;4.70;1.80;;;6.30;99.90;;;;;;4264912;27;20065;-59
2024/02/28 02:32:53;;;;;;;1.27;0.60;;;6.10;99.90;;;;;;4265185;27;20138;-60
2024/02/28 02:34:55;;;;;;;2.30;1.08;;;6.10;99.90;;;;;;4265097;27;20050;-59
2024/02/28 02:36:57;;;;;;;0.75;0.50;;;6.10;99.90;;;;;;4264960;27;20502;-60
2024/02/28 02:39:00;;;;;;;7.10;1.65;;;6.10;99.90;;;;;;4264776;27;20047;-59
2024/02/28 02:41:03;;;;;;;1.75;1.08;;;6.10;99.90;;;;;;4264600;27;20046;-58
2024/02/28 02:43:05;;;;;;;1.27;0.80;;;6.10;99.90;;;;;;4264859;27;20070;-58
2024/02/28 02:45:07;;;;;;;1.00;0.80;;;6.10;99.90;;;;;;4265021;27;20472;-59
2024/02/28 02:47:10;;;;;;;1.00;0.68;;;6.20;99.90;;;;;;4249163;27;20427;-59
2024/02/28 02:49:12;;;;;;;1.38;0.90;;;6.30;99.90;;;;;;4268378;27;20125;-59
2024/02/28 02:51:14;;;;;;;1.55;0.65;;;6.30;99.90;;;;;;4268411;27;20049;-61
2024/02/28 02:53:17;;;;;;;1.35;0.65;;;6.30;99.90;;;;;;4267927;27;20054;-59
2024/02/28 02:55:20;;;;;;;1.77;1.42;;;6.10;99.90;;;;;;4267990;27;20551;-60
2024/02/28 02:57:22;;;;;;;2.10;1.02;;;6.10;99.90;;;;;;4268198;27;20047;-59
2024/02/28 02:59:24;;;;;;;2.33;0.88;;;6.20;99.90;;;;;;4268235;27;20463;-59
2024/02/28 03:01:26;;;;;;;2.97;0.70;;;6.00;99.90;;;;;;4250233;27;20071;-58
2024/02/28 03:03:29;;;;;;;1.20;0.60;;;5.90;99.90;;;;;;4268391;27;20047;-58
2024/02/28 03:05:31;;;;;;;1.88;0.85;;;5.90;99.90;;;;;;4269595;27;20049;-60
2024/02/28 03:07:33;;;;;;;2.33;0.75;;;5.90;99.90;;;;;;4270522;27;20043;-60
2024/02/28 03:09:35;;;;;;;0.40;0.38;;;5.90;99.90;;;;;;4252100;27;20043;-60
2024/02/28 03:11:39;;;;;;;1.08;0.75;;;6.00;99.90;;;;;;4268368;27;20091;-58
2024/02/28 03:13:41;;;;;;;0.50;0.50;;;6.10;99.90;;;;;;4268201;27;20445;-57
2024/02/28 03:15:43;;;;;;;1.55;1.08;;;6.10;99.90;;;;;;4267957;27;20049;-60
2024/02/28 03:17:45;;;;;;;0.43;0.30;;;6.10;99.90;;;;;;4249673;27;20498;-61
2024/02/28 03:19:47;;;;;;;0.93;0.65;;;6.20;99.90;;;;;;4267913;27;20399;-59
2024/02/28 03:21:49;;;;;;;3.38;0.60;;;6.20;99.90;;;;;;4268225;27;20042;-59
2024/02/28 03:23:51;;;;;;;0.95;0.88;;;6.20;99.90;;;;;;4267998;27;20463;-59
2024/02/28 03:25:53;;;;;;;0.55;0.50;;;6.20;99.90;;;;;;4267889;27;20073;-58
2024/02/28 03:27:57;;;;;;;1.58;1.23;;;6.20;99.90;;;;;;4268018;27;20058;-59
2024/02/28 03:29:59;;;;;;;0.87;0.60;;;6.20;99.90;;;;;;4267731;27;20045;-59
2024/02/28 03:32:01;;;;;;;2.35;1.48;;;6.10;99.90;;;;;;4267548;27;20045;-58
2024/02/28 03:34:03;;;;;;;2.17;0.90;;;6.10;99.90;;;;;;4267585;27;20043;-58
2024/02/28 03:36:06;;;;;;;1.88;1.20;;;6.20;99.90;;;;;;4267619;27;20046;-59
2024/02/28 03:38:08;;;;;;;1.00;0.55;;;6.30;99.90;;;;;;4267553;27;20050;-60
2024/02/28 03:40:11;;;;;;;1.83;1.10;;;6.20;99.90;;;;;;4250094;27;20527;-60
2024/02/28 03:42:13;;;;;;;1.13;0.75;;;6.20;99.90;;;;;;4267752;27;20074;-59
2024/02/28 03:44:16;;;;;;;2.10;1.20;;;6.30;99.90;;;;;;4267557;27;20066;-60
2024/02/28 03:46:19;;;;;;;0.75;0.50;;;6.30;99.90;;;;;;4267115;27;20099;-59
2024/02/28 03:48:21;;;;;;;2.90;0.90;;;6.20;99.90;;;;;;4248993;27;20074;-59
2024/02/28 03:50:23;;;;;;;3.10;0.80;;;6.20;99.90;;;;;;4267389;27;20043;-60
2024/02/28 03:52:26;;;;;;;1.70;0.70;;;6.20;99.90;;;;;;4267123;27;20070;-60
2024/02/28 03:54:28;;;;;;;3.08;1.23;;;6.30;99.90;;;;;;4267166;27;20074;-60
2024/02/28 03:56:30;;;;;;;2.35;1.13;;;6.20;99.90;;;;;;4267104;27;20177;-60
2024/02/28 03:58:32;;;;;;;0.98;0.80;;;6.10;99.90;;;;;;4247572;27;20126;-59
2024/02/28 04:00:35;;;;;;;2.22;1.10;;;6.10;99.90;;;;;;4267255;27;20099;-59
2024/02/28 04:02:38;;;;;;;0.93;0.60;;;6.10;99.90;;;;;;4267414;27;20535;-59
2024/02/28 04:04:40;;;;;;;2.83;0.70;;;6.10;99.90;;;;;;4248829;27;20050;-59
2024/02/28 04:06:42;;;;;;;1.20;1.10;;;6.10;99.90;;;;;;4266538;27;20133;-59
2024/02/28 04:08:45;;;;;;;4.35;0.95;;;6.00;99.90;;;;;;4266974;27;20043;-59
2024/02/28 04:10:47;;;;;;;1.08;0.55;;;6.00;99.90;;;;;;4267086;27;20502;-59
2024/02/28 04:12:49;;;;;;;0.93;0.88;;;6.00;99.90;;;;;;4267219;27;20510;-59
2024/02/28 04:14:51;;;;;;;0.40;0.40;;;6.10;99.90;;;;;;4267428;27;20039;-60
2024/02/28 04:16:54;;;;;;;1.48;1.02;;;6.20;99.90;;;;;;4267615;27;20133;-61
2024/02/28 04:18:56;;;;;;;4.32;1.05;;;6.10;99.90;;;;;;4268876;27;20463;-59
2024/02/28 04:20:59;;;;;;;1.02;0.65;;;6.20;99.90;;;;;;4267171;27;20043;-59
2024/02/28 04:23:01;;;;;;;3.40;1.27;;;6.20;99.90;;;;;;4266524;27;20046;-59
2024/02/28 04:25:04;;;;;;;4.07;2.25;;;6.20;99.90;;;;;;4266598;27;20042;-59
2024/02/28 04:27:06;;;;;;;2.35;1.88;;;6.00;99.90;;;;;;4266744;27;20438;-59
2024/02/28 04:29:13;;;;;;;1.48;1.05;;;6.00;99.90;;;;;;4267005;27;20046;-59
2024/02/28 04:31:15;;;;;;;0.50;0.40;;;6.00;99.90;;;;;;4266718;27;20058;-67
2024/02/28 04:33:19;;;;;;;3.75;1.33;;;6.00;99.90;;;;;;4266573;27;20085;-60
2024/02/28 04:35:21;;;;;;;7.65;0.80;;;6.10;99.90;;;;;;4266646;27;20070;-59
2024/02/28 04:37:23;;;;;;;1.77;0.75;;;6.10;99.90;;;;;;4266236;27;20043;-58
2024/02/28 04:39:25;;;;;;;2.25;1.15;;;6.10;99.90;;;;;;4266705;27;20050;-58
2024/02/28 04:41:28;;;;;;;0.85;0.70;;;6.10;99.90;;;;;;4266913;27;20373;-58
2024/02/28 04:43:30;;;;;;;1.20;0.63;;;6.10;99.90;;;;;;4266788;27;20458;-59
2024/02/28 04:45:32;;;;;;;3.35;1.10;;;6.10;99.90;;;;;;4266636;27;20429;-63
2024/02/28 04:47:34;;;;;;;2.03;1.02;;;6.10;99.90;;;;;;4266681;27;20045;-60
2024/02/28 04:49:46;;;;;;;1.30;0.75;;;6.10;99.90;;;;;;4266735;27;20043;-65
2024/02/28 04:51:49;;;;;;;0.68;0.60;;;6.20;99.90;;;;;;4266160;27;20046;-59
2024/02/28 04:53:51;;;;;;;5.47;1.25;;;6.20;99.90;;;;;;4266392;27;20445;-59
2024/02/28 04:55:53;;;;;;;1.42;1.33;;;6.20;99.90;;;;;;4265721;27;20389;-59
2024/02/28 04:57:55;;;;;;;1.23;0.70;;;6.20;99.90;;;;;;4266607;27;20400;-65
2024/02/28 04:59:58;;;;;;;6.68;1.08;;;6.20;99.90;;;;;;4248715;27;20401;-59
2024/02/28 05:02:00;;;;;;;2.78;0.98;;;6.30;99.90;;;;;;4266423;27;20047;-59
2024/02/28 05:04:02;;;;;;;1.58;1.00;;;6.30;99.90;;;;;;4266110;27;20413;-59
2024/02/28 05:06:06;;;;;;;2.40;1.00;;;6.40;99.90;;;;;;4247547;27;20134;-60
2024/02/28 05:08:09;;;;;;;1.10;0.68;;;6.40;99.90;;;;;;4266571;27;20415;-59
2024/02/28 05:10:11;;;;;;;1.92;1.58;;;6.50;99.90;;;;;;4266314;27;20093;-59
2024/02/28 05:12:13;;;;;;;0.85;0.63;;;6.50;99.90;;;;;;4266381;27;20121;-59
2024/02/28 05:14:15;;;;;;;1.42;0.65;;;6.50;99.90;;;;;;4266029;27;20070;-62
2024/02/28 05:16:17;;;;;;;0.70;0.68;;;6.40;99.90;;;;;;4267463;27;20107;-61
2024/02/28 05:18:19;;;;;;;0.52;0.52;;;6.40;99.90;;;;;;4249237;27;20074;-60
2024/02/28 05:20:21;;;;;;;6.65;2.35;;;6.40;99.90;;;;;;4268249;27;20047;-59
2024/02/28 05:22:25;;;;;;;1.65;1.20;;;6.40;99.90;;;;;;4267597;27;20064;-58
2024/02/28 05:24:27;;;;;;;14.40;0.80;;;6.50;99.90;;;;;;4267720;27;20491;-60
2024/02/28 05:26:31;;;;;;;0.88;0.63;;;6.40;99.90;;;;;;4267266;27;20076;-60
2024/02/28 05:28:34;;;;;;;1.85;0.93;;;6.50;99.90;;;;;;4266672;27;20050;-58
2024/02/28 05:30:36;;;;;;;0.77;0.77;;;6.50;99.90;;;;;;4265862;27;20074;-59
2024/02/28 05:32:40;;;;;;;0.90;0.63;;;6.50;99.90;;;;;;4265689;27;20054;-60
2024/02/28 05:34:42;;;;;;;1.52;0.90;;;6.50;99.90;;;;;;4265668;27;20104;-59
2024/02/28 05:36:44;;;;;;;0.90;0.57;;;6.60;99.90;;;;;;4265333;27;20042;-61
2024/02/28 05:38:48;;;;;;;1.40;0.70;;;6.60;99.90;;;;;;4265179;27;20053;-59
2024/02/28 05:40:50;;;;;;;1.15;0.63;;;6.70;99.90;;;;;;4265577;27;20043;-59
2024/02/28 05:42:52;;;;;;;1.08;0.68;;;6.70;99.90;;;;;;4265491;27;20054;-59
2024/02/28 05:44:54;;;;;;;1.33;0.77;;;6.70;99.90;;;;;;4265541;27;20092;-61
2024/02/28 05:46:56;;;;;;;0.80;0.50;;;6.70;99.90;;;;;;4266257;27;20050;-59
2024/02/28 05:48:59;;;;;;;0.63;0.55;;;6.70;99.90;;;;;;4266689;27;20054;-60
2024/02/28 05:51:02;;;;;;;1.25;1.00;;;6.70;99.90;;;;;;4265421;27;20121;-59
2024/02/28 05:53:04;;;;;;;1.33;1.00;;;6.70;99.90;;;;;;4265144;27;20503;-59
2024/02/28 05:55:10;;;;;;;1.42;1.05;;;6.70;99.90;;;;;;4264981;27;20411;-58
2024/02/28 05:57:12;;;;;;;0.98;0.77;;;6.70;99.90;;;;;;4265359;27;20050;-60
2024/02/28 05:59:15;;;;;;;4.18;1.42;;;6.70;99.90;;;;;;4264999;27;20081;-59
2024/02/28 06:01:18;;;;;;;1.63;0.70;;;6.80;99.90;;;;;;4265619;27;20039;-59
2024/02/28 06:03:21;;;;;;;1.20;0.80;;;6.70;99.90;;;;;;4247393;27;20050;-60
2024/02/28 06:05:23;;;;;;;0.63;0.52;;;6.70;99.90;;;;;;4265290;27;20047;-59
2024/02/28 06:07:25;;;;;;;1.08;0.98;;;6.70;99.90;;;;;;4265555;27;20049;-59
2024/02/28 06:09:30;;;;;;;5.15;1.55;;;6.80;99.90;;;;;;4265046;27;20130;-59
2024/02/28 06:11:33;;;;;;;1.30;0.88;;;6.80;99.90;;;;;;4264935;27;20049;-59
2024/02/28 06:13:36;;;;;;;4.22;0.93;;;6.90;99.90;;;;;;4265231;27;20468;-59
2024/02/28 06:15:38;;;;;;;1.67;1.00;;;6.90;99.90;;;;;;4264974;27;20047;-59
2024/02/28 06:17:40;;;;;;;0.68;0.68;;;7.00;99.90;;;;;;4264737;27;20384;-65
2024/02/28 06:19:42;;;;;;;1.10;0.60;;;6.90;99.90;;;;;;4264440;27;20059;-59
2024/02/28 06:21:45;;;;;;;0.70;0.60;;;6.80;99.90;;;;;;4264395;27;20047;-60
2024/02/28 06:23:47;;;;;;;3.30;0.52;;;6.70;99.90;;;;;;4264828;27;20487;-59
2024/02/28 06:25:50;;;;;;;5.07;1.10;;;6.90;99.90;;;;;;4265033;27;20047;-59
2024/02/28 06:27:53;;;;;;;1.45;1.35;;;6.90;99.90;;;;;;4265093;27;20042;-59
2024/02/28 06:29:56;;;;;;;2.88;0.82;;;7.00;99.90;;;;;;4264540;27;20054;-59
2024/02/28 06:31:58;;;;;;;0.70;0.55;;;7.00;99.90;;;;;;4264786;27;20099;-59
2024/02/28 06:34:02;;;;;;;2.15;1.88;;;7.00;99.90;;;;;;4264357;27;20520;-58
2024/02/28 06:36:04;;;;;;;1.25;0.88;;;7.00;99.90;;;;;;4264697;27;20047;-59
2024/02/28 06:38:07;;;;;;;0.65;0.63;;;7.00;99.90;;;;;;4264535;27;20047;-58
2024/02/28 06:40:09;;;;;;;3.65;0.70;;;7.00;99.90;;;;;;4264824;27;20039;-59
2024/02/28 06:42:11;;;;;;;1.67;0.80;;;7.10;99.90;;;;;;4264716;27;20046;-60
2024/02/28 06:44:15;;;;;;;3.15;0.90;;;7.00;99.90;;;;;;4264680;27;20042;-59
2024/02/28 06:46:17;;;;;;;7.90;0.93;;;7.10;99.90;;;;;;4265038;27;20121;-58
2024/02/28 06:48:19;;;;;;;1.83;1.52;;;7.10;99.90;;;;;;4246387;28;20520;-59
2024/02/28 06:50:21;;;;;;;1.42;0.65;;;7.10;99.90;;;;;;4264826;27;20042;-60
2024/02/28 06:52:24;;;;;;;1.83;1.38;;;7.10;99.90;;;;;;4265540;27;20043;-60
2024/02/28 06:54:26;;;;;;;0.88;0.70;;;7.10;99.90;;;;;;4265550;27;20042;-59
2024/02/28 06:56:28;;;;;;;2.40;0.93;;;7.20;99.90;;;;;;4264996;27;20079;-59
2024/02/28 06:58:30;;;;;;;1.20;0.80;;;7.20;99.90;;;;;;4264864;27;20050;-59
2024/02/28 07:00:33;;;;;;;1.75;1.23;;;7.20;99.90;;;;;;4265618;27;20043;-60
2024/02/28 07:02:36;;;;;;;4.15;1.63;;;7.30;99.90;;;;;;4264806;27;20097;-59
2024/02/28 07:04:38;;;;;;;3.33;1.33;;;7.30;99.90;;;;;;4265249;27;20385;-59
2024/02/28 07:06:40;;;;;;;1.88;1.48;;;7.30;99.90;;;;;;4265020;27;20047;-59
2024/02/28 07:08:42;;;;;;;1.33;0.98;;;7.30;99.90;;;;;;4265130;27;20095;-59
2024/02/28 07:10:49;;;;;;;3.35;1.23;;;7.40;99.90;;;;;;4265051;27;20353;-61
2024/02/28 07:12:51;;;;;;;1.73;1.08;;;7.40;99.90;;;;;;4265207;27;20117;-60
2024/02/28 07:14:55;;;;;;;1.98;1.08;;;7.40;99.90;;;;;;4264964;27;20133;-61
2024/02/28 07:17:01;;;;;;;0.95;0.68;;;7.40;99.90;;;;;;4264555;27;20050;-60
2024/02/28 07:19:03;;;;;;;2.30;0.43;;;7.30;99.90;;;;;;4264627;27;20061;-60
2024/02/28 07:21:06;;;;;;;0.60;0.60;;;7.40;99.90;;;;;;4265046;27;20494;-59
2024/02/28 07:23:08;;;;;;;0.82;0.60;;;7.40;99.90;;;;;;4264785;27;20039;-60
2024/02/28 07:25:11;;;;;;;5.00;1.73;;;7.50;99.90;;;;;;4264890;27;20038;-60
2024/02/28 07:27:13;;;;;;;23.05;1.25;;;7.60;99.90;;;;;;4264674;27;20045;-62
2024/02/28 07:29:15;;;;;;;1.48;1.00;;;7.60;99.90;;;;;;4264764;27;20082;-59
2024/02/28 07:31:18;;;;;;;3.20;1.20;;;7.70;99.90;;;;;;4264243;27;20131;-60
2024/02/28 07:33:21;;;;;;;2.72;1.52;;;7.80;99.90;;;;;;4266075;27;20099;-59
2024/02/28 07:35:24;;;;;;;1.35;0.88;;;7.80;99.90;;;;;;4267998;27;20042;-60
2024/02/28 07:37:26;;;;;;;2.10;1.42;;;7.90;99.90;;;;;;4267936;27;20049;-63
2024/02/28 07:39:28;;;;;;;2.05;0.90;;;7.80;99.90;;;;;;4267804;27;20047;-62
2024/02/28 07:41:30;;;;;;;4.00;0.50;;;7.90;99.90;;;;;;4267689;27;20195;-60
2024/02/28 07:43:32;;;;;;;1.50;1.05;;;8.00;99.90;;;;;;4268210;27;20050;-65
2024/02/28 07:45:34;;;;;;;1.08;0.65;;;8.00;99.90;;;;;;4249457;27;20084;-60
2024/02/28 07:47:37;;;;;;;2.03;1.38;;;7.90;99.90;;;;;;4268123;27;20077;-61
2024/02/28 07:49:40;;;;;;;1.30;0.60;;;7.90;99.90;;;;;;4267381;27;20484;-59
2024/02/28 07:51:42;;;;;;;1.77;1.00;;;8.00;99.90;;;;;;4267697;27;20468;-60
2024/02/28 07:53:46;;;;;;;1.77;1.23;;;8.10;99.90;;;;;;4267435;27;20039;-59
2024/02/28 07:55:48;;;;;;;2.53;1.48;;;8.20;99.90;;;;;;4267687;27;20057;-60
2024/02/28 07:57:51;;;;;;;3.30;1.20;;;8.30;99.90;;;;;;4267313;27;20111;-65
2024/02/28 07:59:53;;;;;;;1.48;1.10;;;8.20;99.90;;;;;;4267493;27;20047;-60
2024/02/28 08:01:55;;;;;;;1.63;0.95;;;8.20;99.90;;;;;;4266901;27;20047;-59
2024/02/28 08:03:58;;;;;;;1.45;0.93;;;8.20;99.90;;;;;;4267389;27;20042;-60
2024/02/28 08:06:03;;;;;;;0.80;0.80;;;8.00;99.90;;;;;;4267137;27;20039;-60
2024/02/28 08:08:05;;;;;;;1.85;1.17;;;8.10;99.90;;;;;;4267386;27;20050;-59
2024/02/28 08:10:09;;;;;;;3.50;1.20;;;8.10;99.90;;;;;;4267203;27;20046;-60
2024/02/28 08:12:12;;;;;;;2.42;1.40;;;8.00;99.90;;;;;;4267585;27;20054;-60
2024/02/28 08:14:14;;;;;;;1.50;0.95;;;8.00;99.90;;;;;;4266996;27;20064;-61
2024/02/28 08:16:16;;;;;;;2.30;0.90;;;7.90;99.90;;;;;;4266658;27;20056;-59
2024/02/28 08:18:18;;;;;;;0.70;0.60;;;8.10;99.90;;;;;;4248427;27;20126;-60
2024/02/28 08:20:20;;;;;;;2.15;1.10;;;8.00;99.90;;;;;;4267218;27;20059;-60
2024/02/28 08:22:24;;;;;;;1.45;1.05;;;8.10;99.90;;;;;;4267070;27;20099;-60
2024/02/28 08:24:27;;;;;;;2.00;1.00;;;8.10;99.90;;;;;;4267291;27;20126;-59
2024/02/28 08:26:30;;;;;;;1.42;1.33;;;8.00;99.90;;;;;;4267671;27;20047;-64
2024/02/28 08:28:32;;;;;;;3.53;1.30;;;8.20;99.90;;;;;;4268403;27;20038;-60
2024/02/28 08:30:34;;;;;;;2.13;1.60;;;8.30;99.90;;;;;;4268018;27;20042;-60
2024/02/28 08:32:36;;;;;;;3.53;0.93;;;8.40;99.90;;;;;;4267788;27;20518;-63
2024/02/28 08:34:38;;;;;;;4.70;1.15;;;8.40;99.90;;;;;;4267643;27;20061;-60
2024/02/28 08:36:40;;;;;;;1.25;0.90;;;8.50;99.90;;;;;;4267627;27;20066;-66
2024/02/28 08:38:44;;;;;;;5.28;1.77;;;8.50;99.90;;;;;;4267582;27;20458;-60
2024/02/28 08:40:46;;;;;;;1.98;0.75;;;8.50;99.90;;;;;;4266880;27;20043;-60
2024/02/28 08:42:52;;;;;;;2.53;0.85;;;8.50;99.90;;;;;;4266790;27;20166;-59
2024/02/28 08:44:55;;;;;;;1.60;1.30;;;8.50;99.90;;;;;;4265654;27;20099;-59
2024/02/28 08:46:57;;;;;;;1.75;1.05;;;8.50;99.90;;;;;;4266207;27;20042;-60
2024/02/28 08:48:59;;;;;;;1.10;1.00;;;8.50;99.90;;;;;;4266396;27;20541;-59
2024/02/28 08:51:01;;;;;;;3.05;1.70;;;8.60;99.90;;;;;;4266265;27;20046;-60
2024/02/28 08:53:04;;;;;;;3.83;2.47;;;8.60;99.90;;;;;;4266765;27;20096;-60
2024/02/28 08:55:07;;;;;;;1.58;0.80;;;8.90;99.90;;;;;;4266602;27;20133;-61
2024/02/28 08:57:09;;;;;;;3.33;2.03;;;9.00;99.90;;;;;;4266828;27;20047;-60
2024/02/28 08:59:12;;;;;;;2.47;1.42;;;9.10;99.90;;;;;;4266952;27;20483;-60
2024/02/28 09:01:15;;;;;;;1.23;1.13;;;9.10;99.90;;;;;;4267009;27;20050;-60
2024/02/28 09:03:19;;;;;;;2.70;1.33;;;9.20;99.90;;;;;;4266681;27;20066;-60
2024/02/28 09:05:23;;;;;;;2.40;0.88;;;9.30;99.90;;;;;;4266724;27;20177;-69
2024/02/28 09:07:25;;;;;;;2.83;0.95;;;9.40;99.90;;;;;;4266567;27;20039;-60
2024/02/28 09:09:30;;;;;;;1.45;0.60;;;9.60;99.90;;;;;;4268152;27;20046;-60
2024/02/28 09:11:33;;;;;;;3.15;0.90;;;9.90;99.90;;;;;;4265601;27;20066;-60
2024/02/28 09:13:35;;;;;;;1.08;0.98;;;10.00;99.90;;;;;;4261942;27;20165;-59
2024/02/28 09:15:37;;;;;;;2.78;0.88;;;10.20;99.80;;;;;;4265215;27;20047;-60
2024/02/28 09:17:39;;;;;;;2.03;0.60;;;10.40;99.50;;;;;;4264709;27;20453;-60
2024/02/28 09:19:42;;;;;;;3.63;1.95;;;10.50;99.60;;;;;;4264981;27;20480;-60
2024/02/28 09:21:44;;;;;;;3.08;1.02;;;10.60;99.50;;;;;;4251133;27;20039;-60
2024/02/28 09:23:46;;;;;;;2.78;1.35;;;10.50;99.10;;;;;;4273211;27;20047;-59
2024/02/28 09:25:49;;;;;;;1.27;0.73;;;10.60;99.30;;;;;;4274005;27;20042;-59
2024/02/28 09:27:52;;;;;;;2.10;1.60;;;10.70;98.80;;;;;;4270691;27;20038;-59
2024/02/28 09:29:54;;;;;;;1.30;0.98;;;10.60;98.60;;;;;;4251524;27;20103;-59
2024/02/28 09:31:56;;;;;;;3.40;0.98;;;10.70;99.30;;;;;;4271406;27;20133;-59
2024/02/28 09:33:58;;;;;;;2.03;0.50;;;10.70;98.90;;;;;;4273831;27;20137;-59
2024/02/28 09:36:02;;;;;;;0.93;0.70;;;10.80;99.40;;;;;;4270466;27;20468;-59
2024/02/28 09:38:04;;;;;;;2.58;0.82;;;10.90;98.70;;;;;;4268217;27;20084;-59
2024/02/28 09:40:09;;;;;;;6.95;2.25;;;10.90;98.90;;;;;;4270246;27;20388;-60
2024/02/28 09:42:13;;;;;;;1.58;0.90;;;10.90;99.00;;;;;;4265073;27;20133;-62
2024/02/28 09:44:17;;;;;;;2.00;1.30;;;11.30;98.70;;;;;;4246857;27;20043;-59
2024/02/28 09:46:19;;;;;;;2.30;1.08;;;11.30;97.90;;;;;;4264791;27;20133;-59
2024/02/28 09:48:22;;;;;;;9.00;0.68;;;11.40;98.20;;;;;;4255806;27;20114;-61
2024/02/28 09:50:25;;;;;;;2.05;0.50;;;11.60;98.20;;;;;;4255423;27;20034;-59
2024/02/28 09:52:27;;;;;;;2.80;1.35;;;11.70;97.60;;;;;;4264905;27;20042;-59
2024/02/28 09:54:30;;;;;;;0.68;0.50;;;11.60;97.60;;;;;;4264966;27;20141;-60
2024/02/28 09:56:33;;;;;;;1.50;0.88;;;11.60;97.50;;;;;;4263756;27;20047;-60
2024/02/28 09:58:35;;;;;;;5.10;1.38;;;11.80;97.40;;;;;;4264487;27;20050;-60
2024/02/28 10:00:39;;;;;;;1.35;0.50;;;11.60;96.90;;;;;;4264937;27;20108;-60
2024/02/28 10:02:44;;;;;;;0.55;0.40;;;11.60;97.40;;;;;;4257876;27;20070;-62
2024/02/28 10:04:46;;;;;;;2.22;0.60;;;11.80;97.80;;;;;;4260197;27;20043;-60
2024/02/28 10:06:49;;;;;;;0.95;0.80;;;12.10;97.20;;;;;;4259572;27;20129;-59
2024/02/28 10:08:52;;;;;;;2.25;0.90;;;12.30;96.30;;;;;;4240917;27;20046;-59
2024/02/28 10:10:59;;;;;;;1.35;0.82;;;12.30;96.40;;;;;;4260526;27;20054;-59
2024/02/28 10:13:02;;;;;;;2.53;1.55;;;12.30;96.70;;;;;;4263740;27;20433;-60
2024/02/28 10:15:05;;;;;;;2.30;1.13;;;12.30;96.40;;;;;;4260437;27;20226;-62
2024/02/28 10:17:09;;;;;;;2.33;0.98;;;12.30;96.00;;;;;;4263878;27;20038;-61
2024/02/28 10:19:11;;;;;;;2.17;0.52;;;12.40;96.60;;;;;;4261883;27;20074;-60
2024/02/28 10:21:18;;;;;;;2.75;0.65;;;12.40;96.30;;;;;;4253134;27;20051;-60
2024/02/28 10:23:27;;;;;;;11.95;1.08;;;12.60;96.40;;;;;;4262016;27;20074;-61
2024/02/28 10:25:29;;;;;;;5.97;1.25;;;12.60;95.70;;;;;;4263241;27;20526;-60
2024/02/28 10:27:37;;;;;;;1.52;1.00;;;12.60;95.40;;;;;;4261613;27;20035;-60
2024/02/28 10:29:41;;;;;;;3.45;0.60;;;12.60;95.00;;;;;;4262966;27;20069;-61
2024/02/28 10:31:45;;;;;;;0.88;0.50;;;12.40;95.10;;;;;;4262963;27;20050;-60
2024/02/28 10:33:50;;;;;;;2.10;0.47;;;12.80;95.70;;;;;;4262666;27;20035;-60
2024/02/28 10:35:52;;;;;;;0.88;0.50;;;13.00;95.60;;;;;;4262674;27;20047;-60
2024/02/28 10:37:56;;;;;;;1.75;0.60;;;13.00;94.90;;;;;;4254974;27;20545;-60
2024/02/28 10:39:58;;;;;;;0.75;0.40;;;12.80;95.20;;;;;;4262446;27;20053;-60
2024/02/28 10:42:02;;;;;;;0.95;0.57;;;13.00;95.20;;;;;;4262833;27;20502;-60
2024/02/28 10:44:04;;;;;;;0.80;0.50;;;13.10;95.10;;;;;;4263039;27;20039;-60
2024/02/28 10:46:08;;;;;;;1.13;0.50;;;13.10;94.60;;;;;;4263335;27;20088;-63